BLY45 EGGP-LFBE
Flight info
| Callsign | BLY45 |
|---|---|
| Flight time | 1h 25m |
| Altitude | 35000 |
| Route | NANTI L8 HON UN859 SOPIL DCT MAKOX DCT BUGUS |
| Aircraft | A319/M-SDE3FGHIRWY/LB1 |
Departure
| Time | 2026-04-26 12:58 |
|---|---|
| Airport | Liverpool John Lennon Airport (EGGP) |
Arrival
| Time | 2026-04-26 14:24 |
|---|---|
| Airport | Bergerac Dordogne-Périgord airport (LFBE) |
| Time | Latitude | Longitude | Altitude | Speed | Heading |
|---|---|---|---|---|---|
| 2026-04-26 12:28 | 53.33663 | -2.85587 | 89 ft | 0 kts | 356° |
| 2026-04-26 12:51 | 53.33648 | -2.85584 | 90 ft | 4 kts | 348° |
| 2026-04-26 12:51 | 53.33627 | -2.85580 | 88 ft | 4 kts | 343° |
| 2026-04-26 12:51 | 53.33613 | -2.85558 | 90 ft | 4 kts | 271° |
| 2026-04-26 12:52 | 53.33614 | -2.85518 | 86 ft | 2 kts | 265° |
| 2026-04-26 12:52 | 53.33614 | -2.85515 | 86 ft | 0 kts | 265° |
| 2026-04-26 12:54 | 53.33614 | -2.85516 | 85 ft | 1 kts | 265° |
| 2026-04-26 12:55 | 53.33612 | -2.85551 | 88 ft | 5 kts | 266° |
| 2026-04-26 12:55 | 53.33610 | -2.85627 | 89 ft | 8 kts | 266° |
| 2026-04-26 12:55 | 53.33605 | -2.85722 | 86 ft | 9 kts | 264° |
| 2026-04-26 12:55 | 53.33599 | -2.85839 | 85 ft | 11 kts | 265° |
| 2026-04-26 12:56 | 53.33563 | -2.85937 | 87 ft | 12 kts | 187° |
| 2026-04-26 12:56 | 53.33482 | -2.85989 | 85 ft | 16 kts | 258° |
| 2026-04-26 12:56 | 53.33474 | -2.86183 | 84 ft | 18 kts | 265° |
| 2026-04-26 12:56 | 53.33464 | -2.86394 | 84 ft | 16 kts | 265° |
| 2026-04-26 12:57 | 53.33453 | -2.86610 | 75 ft | 17 kts | 265° |
| 2026-04-26 12:57 | 53.33399 | -2.86728 | 76 ft | 13 kts | 200° |
| 2026-04-26 12:57 | 53.33305 | -2.86676 | 71 ft | 15 kts | 138° |
| 2026-04-26 12:58 | 53.33335 | -2.85604 | 82 ft | 112 kts | 85° |
| 2026-04-26 12:58 | 53.33414 | -2.83991 | 332 ft | 148 kts | 90° |
| 2026-04-26 12:58 | 53.33511 | -2.82289 | 1065 ft | 146 kts | 90° |
| 2026-04-26 12:58 | 53.33601 | -2.80599 | 1755 ft | 146 kts | 88° |
| 2026-04-26 12:59 | 53.33472 | -2.78866 | 2057 ft | 161 kts | 122° |
| 2026-04-26 12:59 | 53.32684 | -2.77522 | 2350 ft | 175 kts | 151° |
| 2026-04-26 12:59 | 53.31598 | -2.76358 | 2610 ft | 197 kts | 151° |
| 2026-04-26 12:59 | 53.30365 | -2.75062 | 2925 ft | 222 kts | 150° |
| 2026-04-26 13:00 | 53.28991 | -2.73609 | 3402 ft | 246 kts | 150° |
| 2026-04-26 13:00 | 53.27495 | -2.72021 | 3912 ft | 263 kts | 150° |
| 2026-04-26 13:00 | 53.25947 | -2.70367 | 3993 ft | 263 kts | 150° |
| 2026-04-26 13:00 | 53.24414 | -2.68717 | 4011 ft | 263 kts | 150° |
| 2026-04-26 13:01 | 53.22874 | -2.67057 | 4014 ft | 263 kts | 149° |
| 2026-04-26 13:01 | 53.21327 | -2.65390 | 4013 ft | 264 kts | 150° |
| 2026-04-26 13:01 | 53.19787 | -2.63727 | 4009 ft | 264 kts | 150° |
| 2026-04-26 13:01 | 53.18249 | -2.62064 | 4010 ft | 263 kts | 149° |
| 2026-04-26 13:02 | 53.16735 | -2.60335 | 4012 ft | 264 kts | 148° |
| 2026-04-26 13:02 | 53.15257 | -2.58584 | 4013 ft | 264 kts | 147° |
| 2026-04-26 13:02 | 53.13771 | -2.56802 | 4013 ft | 264 kts | 147° |
| 2026-04-26 13:02 | 53.12261 | -2.54990 | 4302 ft | 271 kts | 147° |
| 2026-04-26 13:03 | 53.10744 | -2.53172 | 5329 ft | 268 kts | 146° |
| 2026-04-26 13:03 | 53.09226 | -2.51362 | 6320 ft | 269 kts | 146° |
| 2026-04-26 13:03 | 53.07690 | -2.49546 | 7236 ft | 272 kts | 147° |
| 2026-04-26 13:03 | 53.06134 | -2.47711 | 8118 ft | 276 kts | 147° |
| 2026-04-26 13:04 | 53.04554 | -2.45852 | 8974 ft | 281 kts | 147° |
| 2026-04-26 13:04 | 53.02947 | -2.43968 | 9820 ft | 286 kts | 147° |
| 2026-04-26 13:04 | 53.01307 | -2.42040 | 10572 ft | 294 kts | 147° |
| 2026-04-26 13:04 | 52.99571 | -2.40005 | 10848 ft | 317 kts | 147° |
| 2026-04-26 13:05 | 52.97722 | -2.37845 | 11337 ft | 330 kts | 147° |
| 2026-04-26 13:05 | 52.95836 | -2.35638 | 12050 ft | 335 kts | 147° |
| 2026-04-26 13:05 | 52.93920 | -2.33392 | 12766 ft | 340 kts | 147° |
| 2026-04-26 13:05 | 52.91979 | -2.31117 | 13487 ft | 344 kts | 147° |
| 2026-04-26 13:06 | 52.90008 | -2.28814 | 14189 ft | 348 kts | 147° |
| 2026-04-26 13:06 | 52.88021 | -2.26494 | 14819 ft | 352 kts | 147° |
| 2026-04-26 13:06 | 52.86012 | -2.24151 | 15466 ft | 354 kts | 147° |
| 2026-04-26 13:06 | 52.83991 | -2.21795 | 16115 ft | 357 kts | 147° |
| 2026-04-26 13:07 | 52.81947 | -2.19420 | 16771 ft | 360 kts | 147° |
| 2026-04-26 13:07 | 52.79889 | -2.17034 | 17422 ft | 363 kts | 147° |
| 2026-04-26 13:07 | 52.77817 | -2.14637 | 18078 ft | 366 kts | 147° |
| 2026-04-26 13:07 | 52.75721 | -2.12214 | 18699 ft | 369 kts | 147° |
| 2026-04-26 13:08 | 52.73614 | -2.09778 | 19240 ft | 372 kts | 147° |
| 2026-04-26 13:08 | 52.71487 | -2.07315 | 19802 ft | 375 kts | 147° |
| 2026-04-26 13:08 | 52.69338 | -2.04827 | 20344 ft | 379 kts | 147° |
| 2026-04-26 13:08 | 52.67174 | -2.02325 | 20886 ft | 382 kts | 147° |
| 2026-04-26 13:09 | 52.64981 | -1.99802 | 21402 ft | 386 kts | 147° |
| 2026-04-26 13:09 | 52.62766 | -1.97262 | 21898 ft | 390 kts | 147° |
| 2026-04-26 13:09 | 52.60539 | -1.94706 | 22401 ft | 394 kts | 147° |
| 2026-04-26 13:09 | 52.58274 | -1.92113 | 22918 ft | 397 kts | 147° |
| 2026-04-26 13:10 | 52.55997 | -1.89512 | 23436 ft | 400 kts | 147° |
| 2026-04-26 13:10 | 52.53698 | -1.86888 | 23937 ft | 404 kts | 148° |
| 2026-04-26 13:10 | 52.51383 | -1.84246 | 24348 ft | 407 kts | 148° |
| 2026-04-26 13:10 | 52.49053 | -1.81588 | 24790 ft | 409 kts | 148° |
| 2026-04-26 13:11 | 52.46717 | -1.78924 | 25211 ft | 411 kts | 148° |
| 2026-04-26 13:11 | 52.46152 | -1.78281 | 25310 ft | 412 kts | 148° |
| 2026-04-26 13:11 | 52.43783 | -1.75586 | 25712 ft | 415 kts | 148° |
| 2026-04-26 13:11 | 52.41400 | -1.72880 | 26111 ft | 417 kts | 148° |
| 2026-04-26 13:12 | 52.39006 | -1.70164 | 26506 ft | 420 kts | 148° |
| 2026-04-26 13:12 | 52.36564 | -1.67523 | 26897 ft | 421 kts | 153° |
| 2026-04-26 13:12 | 52.33919 | -1.65479 | 27285 ft | 420 kts | 163° |
| 2026-04-26 13:12 | 52.31145 | -1.63994 | 27668 ft | 421 kts | 166° |
| 2026-04-26 13:13 | 52.28327 | -1.62535 | 28058 ft | 424 kts | 166° |
| 2026-04-26 13:13 | 52.25520 | -1.61080 | 28466 ft | 426 kts | 165° |
| 2026-04-26 13:13 | 52.22700 | -1.59611 | 28900 ft | 427 kts | 165° |
| 2026-04-26 13:13 | 52.19856 | -1.58130 | 29310 ft | 430 kts | 165° |
| 2026-04-26 13:14 | 52.17002 | -1.56645 | 29702 ft | 432 kts | 165° |
| 2026-04-26 13:14 | 52.14132 | -1.55155 | 30084 ft | 434 kts | 166° |
| 2026-04-26 13:14 | 52.11248 | -1.53663 | 30449 ft | 437 kts | 166° |
| 2026-04-26 13:14 | 52.08331 | -1.52155 | 30760 ft | 439 kts | 166° |
| 2026-04-26 13:15 | 52.05417 | -1.50645 | 31060 ft | 441 kts | 166° |
| 2026-04-26 13:15 | 52.02481 | -1.49125 | 31341 ft | 444 kts | 166° |
| 2026-04-26 13:15 | 51.99529 | -1.47605 | 31637 ft | 445 kts | 166° |
| 2026-04-26 13:15 | 51.97574 | -1.46603 | 31840 ft | 446 kts | 166° |
| 2026-04-26 13:16 | 51.93606 | -1.44568 | 32320 ft | 447 kts | 166° |
| 2026-04-26 13:16 | 51.90644 | -1.43049 | 32713 ft | 447 kts | 166° |
| 2026-04-26 13:16 | 51.87677 | -1.41529 | 33136 ft | 446 kts | 166° |
| 2026-04-26 13:16 | 51.84721 | -1.40014 | 33562 ft | 445 kts | 166° |
| 2026-04-26 13:17 | 51.78823 | -1.36990 | 34397 ft | 444 kts | 166° |
| 2026-04-26 13:17 | 51.75881 | -1.35485 | 34774 ft | 443 kts | 166° |
| 2026-04-26 13:18 | 51.69995 | -1.32497 | 35278 ft | 448 kts | 166° |
| 2026-04-26 13:18 | 51.67007 | -1.30990 | 35304 ft | 455 kts | 166° |
| 2026-04-26 13:19 | 51.57799 | -1.26348 | 35303 ft | 465 kts | 166° |
| 2026-04-26 13:19 | 51.51615 | -1.23220 | 35302 ft | 466 kts | 166° |
| 2026-04-26 13:20 | 51.45569 | -1.19323 | 35303 ft | 470 kts | 159° |
| 2026-04-26 13:20 | 51.39622 | -1.14940 | 35300 ft | 470 kts | 159° |
| 2026-04-26 13:21 | 51.33717 | -1.10615 | 35299 ft | 470 kts | 159° |
| 2026-04-26 13:21 | 51.27768 | -1.06269 | 35284 ft | 470 kts | 159° |
| 2026-04-26 13:22 | 51.21814 | -1.01916 | 35287 ft | 471 kts | 159° |
| 2026-04-26 13:22 | 51.15860 | -0.97563 | 35288 ft | 471 kts | 159° |
| 2026-04-26 13:23 | 51.09899 | -0.93239 | 35289 ft | 471 kts | 159° |
| 2026-04-26 13:23 | 51.03930 | -0.88928 | 35289 ft | 472 kts | 159° |
| 2026-04-26 13:24 | 50.97945 | -0.84602 | 35286 ft | 473 kts | 159° |
| 2026-04-26 13:24 | 50.91953 | -0.80290 | 35296 ft | 473 kts | 159° |
| 2026-04-26 13:25 | 50.85967 | -0.75959 | 35289 ft | 474 kts | 155° |
| 2026-04-26 13:25 | 50.80350 | -0.70400 | 35303 ft | 477 kts | 150° |
| 2026-04-26 13:26 | 50.74768 | -0.64704 | 35309 ft | 477 kts | 150° |
| 2026-04-26 13:26 | 50.69183 | -0.59038 | 35305 ft | 477 kts | 150° |
| 2026-04-26 13:27 | 50.63595 | -0.53390 | 35299 ft | 477 kts | 150° |
| 2026-04-26 13:27 | 50.58007 | -0.47765 | 35300 ft | 477 kts | 151° |
| 2026-04-26 13:28 | 50.52409 | -0.42153 | 35299 ft | 477 kts | 150° |
| 2026-04-26 13:28 | 50.46824 | -0.36553 | 35301 ft | 477 kts | 150° |
| 2026-04-26 13:29 | 50.41231 | -0.30952 | 35285 ft | 476 kts | 150° |
| 2026-04-26 13:29 | 50.35646 | -0.25378 | 35295 ft | 476 kts | 151° |
| 2026-04-26 13:30 | 50.30055 | -0.19819 | 35299 ft | 476 kts | 151° |
| 2026-04-26 13:30 | 50.24465 | -0.14267 | 35300 ft | 476 kts | 151° |
| 2026-04-26 13:31 | 50.19811 | -0.09664 | 35292 ft | 476 kts | 151° |
| 2026-04-26 13:31 | 50.14232 | -0.04157 | 35285 ft | 476 kts | 151° |
| 2026-04-26 13:32 | 50.08396 | 0.00569 | 35281 ft | 469 kts | 165° |
| 2026-04-26 13:32 | 50.02111 | 0.03133 | 35272 ft | 467 kts | 169° |
| 2026-04-26 13:33 | 49.95794 | 0.05586 | 35255 ft | 468 kts | 169° |
| 2026-04-26 13:33 | 49.89424 | 0.08078 | 35260 ft | 469 kts | 169° |
| 2026-04-26 13:34 | 49.83141 | 0.10559 | 35259 ft | 470 kts | 169° |
| 2026-04-26 13:34 | 49.76802 | 0.13052 | 35257 ft | 470 kts | 169° |
| 2026-04-26 13:35 | 49.70467 | 0.15515 | 35251 ft | 470 kts | 169° |
| 2026-04-26 13:35 | 49.64125 | 0.17997 | 35256 ft | 470 kts | 169° |
| 2026-04-26 13:36 | 49.57795 | 0.20558 | 35260 ft | 471 kts | 169° |
| 2026-04-26 13:36 | 49.51459 | 0.23129 | 35249 ft | 471 kts | 169° |
| 2026-04-26 13:37 | 49.45118 | 0.25678 | 35253 ft | 471 kts | 169° |
| 2026-04-26 13:37 | 49.38771 | 0.28204 | 35259 ft | 471 kts | 169° |
| 2026-04-26 13:38 | 49.32427 | 0.30732 | 35261 ft | 471 kts | 169° |
| 2026-04-26 13:38 | 49.26090 | 0.33307 | 35253 ft | 472 kts | 168° |
| 2026-04-26 13:39 | 49.19758 | 0.36014 | 35235 ft | 472 kts | 168° |
| 2026-04-26 13:39 | 49.13428 | 0.38718 | 35240 ft | 472 kts | 168° |
| 2026-04-26 13:40 | 49.07113 | 0.41366 | 35224 ft | 472 kts | 168° |
| 2026-04-26 13:40 | 49.00765 | 0.43998 | 35231 ft | 472 kts | 168° |
| 2026-04-26 13:41 | 48.94425 | 0.46639 | 35216 ft | 473 kts | 168° |
| 2026-04-26 13:41 | 48.88063 | 0.49283 | 35212 ft | 474 kts | 168° |
| 2026-04-26 13:42 | 48.81726 | 0.51910 | 35213 ft | 475 kts | 168° |
| 2026-04-26 13:42 | 48.75343 | 0.54532 | 35217 ft | 476 kts | 168° |
| 2026-04-26 13:43 | 48.68934 | 0.57043 | 35214 ft | 476 kts | 169° |
| 2026-04-26 13:43 | 48.62518 | 0.59513 | 35207 ft | 476 kts | 169° |
| 2026-04-26 13:44 | 48.56112 | 0.61995 | 35212 ft | 475 kts | 169° |
| 2026-04-26 13:44 | 48.49708 | 0.64501 | 35215 ft | 475 kts | 168° |
| 2026-04-26 13:45 | 48.43324 | 0.67097 | 35209 ft | 475 kts | 168° |
| 2026-04-26 13:45 | 48.36946 | 0.69727 | 35207 ft | 475 kts | 168° |
| 2026-04-26 13:46 | 48.30571 | 0.72328 | 35205 ft | 475 kts | 168° |
| 2026-04-26 13:46 | 48.24188 | 0.74892 | 35205 ft | 475 kts | 169° |
| 2026-04-26 13:47 | 48.17800 | 0.77420 | 35197 ft | 475 kts | 169° |
| 2026-04-26 13:47 | 48.11411 | 0.79921 | 35196 ft | 475 kts | 169° |
| 2026-04-26 13:48 | 48.05011 | 0.82425 | 35196 ft | 475 kts | 169° |
| 2026-04-26 13:48 | 47.98611 | 0.84926 | 35191 ft | 476 kts | 168° |
| 2026-04-26 13:49 | 47.92201 | 0.87415 | 35186 ft | 477 kts | 168° |
| 2026-04-26 13:49 | 47.85766 | 0.89907 | 35187 ft | 478 kts | 168° |
| 2026-04-26 13:50 | 47.79324 | 0.92408 | 35179 ft | 479 kts | 168° |
| 2026-04-26 13:50 | 47.72875 | 0.94920 | 35181 ft | 480 kts | 168° |
| 2026-04-26 13:51 | 47.66406 | 0.97420 | 35185 ft | 481 kts | 168° |
| 2026-04-26 13:51 | 47.59923 | 0.99911 | 35189 ft | 481 kts | 168° |
| 2026-04-26 13:52 | 47.53428 | 1.02406 | 35183 ft | 482 kts | 168° |
| 2026-04-26 13:52 | 47.46929 | 1.04896 | 35187 ft | 483 kts | 168° |
| 2026-04-26 13:53 | 47.40346 | 1.06394 | 35189 ft | 476 kts | 184° |
| 2026-04-26 13:53 | 47.33727 | 1.06225 | 35179 ft | 476 kts | 184° |
| 2026-04-26 13:54 | 47.27098 | 1.06068 | 35181 ft | 477 kts | 184° |
| 2026-04-26 13:54 | 47.20459 | 1.05917 | 35182 ft | 477 kts | 184° |
| 2026-04-26 13:55 | 47.11614 | 1.05712 | 35181 ft | 478 kts | 184° |
| 2026-04-26 13:56 | 47.00499 | 1.05725 | 35185 ft | 481 kts | 178° |
| 2026-04-26 13:56 | 46.93831 | 1.06471 | 35180 ft | 481 kts | 178° |
| 2026-04-26 13:57 | 46.87191 | 1.07213 | 35183 ft | 482 kts | 178° |
| 2026-04-26 13:57 | 46.80454 | 1.07959 | 35186 ft | 482 kts | 178° |
| 2026-04-26 13:58 | 46.73774 | 1.08694 | 35097 ft | 479 kts | 178° |
| 2026-04-26 13:58 | 46.70518 | 1.09050 | 34898 ft | 471 kts | 178° |
| 2026-04-26 13:58 | 46.67288 | 1.09408 | 34794 ft | 460 kts | 178° |
| 2026-04-26 13:58 | 46.64130 | 1.09762 | 34508 ft | 454 kts | 178° |
| 2026-04-26 13:59 | 46.60980 | 1.10110 | 33986 ft | 453 kts | 179° |
| 2026-04-26 13:59 | 46.57841 | 1.10450 | 33494 ft | 451 kts | 178° |
| 2026-04-26 13:59 | 46.54723 | 1.10788 | 33008 ft | 448 kts | 178° |
| 2026-04-26 14:00 | 46.45485 | 1.11785 | 31578 ft | 440 kts | 177° |
| 2026-04-26 14:00 | 46.42447 | 1.12116 | 31112 ft | 437 kts | 177° |
| 2026-04-26 14:00 | 46.40406 | 1.12340 | 30807 ft | 435 kts | 176° |
| 2026-04-26 14:01 | 46.36431 | 1.12781 | 30194 ft | 431 kts | 176° |
| 2026-04-26 14:01 | 46.33450 | 1.13112 | 29719 ft | 426 kts | 176° |
| 2026-04-26 14:01 | 46.30511 | 1.13434 | 29292 ft | 422 kts | 176° |
| 2026-04-26 14:01 | 46.27602 | 1.13747 | 28870 ft | 417 kts | 176° |
| 2026-04-26 14:02 | 46.24723 | 1.14055 | 28458 ft | 413 kts | 176° |
| 2026-04-26 14:02 | 46.21868 | 1.14363 | 28053 ft | 409 kts | 176° |
| 2026-04-26 14:02 | 46.19047 | 1.14671 | 27652 ft | 406 kts | 176° |
| 2026-04-26 14:02 | 46.16244 | 1.14979 | 27242 ft | 403 kts | 176° |
| 2026-04-26 14:03 | 46.13455 | 1.15284 | 26850 ft | 400 kts | 176° |
| 2026-04-26 14:03 | 46.10679 | 1.15584 | 26448 ft | 399 kts | 176° |
| 2026-04-26 14:03 | 46.07920 | 1.15876 | 26047 ft | 397 kts | 176° |
| 2026-04-26 14:03 | 46.05175 | 1.16165 | 25626 ft | 395 kts | 176° |
| 2026-04-26 14:04 | 46.02433 | 1.16457 | 25210 ft | 394 kts | 176° |
| 2026-04-26 14:04 | 45.99705 | 1.16748 | 24780 ft | 393 kts | 176° |
| 2026-04-26 14:04 | 45.97016 | 1.17036 | 24357 ft | 392 kts | 176° |
| 2026-04-26 14:04 | 45.94265 | 1.17333 | 23911 ft | 391 kts | 176° |
| 2026-04-26 14:05 | 45.91561 | 1.17622 | 23425 ft | 390 kts | 176° |
| 2026-04-26 14:05 | 45.88865 | 1.17912 | 22989 ft | 387 kts | 176° |
| 2026-04-26 14:05 | 45.86196 | 1.18201 | 22553 ft | 384 kts | 176° |
| 2026-04-26 14:05 | 45.83573 | 1.18481 | 22115 ft | 381 kts | 176° |
| 2026-04-26 14:06 | 45.80909 | 1.18764 | 21672 ft | 377 kts | 176° |
| 2026-04-26 14:06 | 45.78304 | 1.19041 | 21243 ft | 374 kts | 176° |
| 2026-04-26 14:06 | 45.75717 | 1.19319 | 20808 ft | 371 kts | 176° |
| 2026-04-26 14:06 | 45.73151 | 1.19596 | 20378 ft | 369 kts | 176° |
| 2026-04-26 14:07 | 45.70602 | 1.19868 | 19948 ft | 366 kts | 176° |
| 2026-04-26 14:07 | 45.68070 | 1.20135 | 19500 ft | 364 kts | 176° |
| 2026-04-26 14:07 | 45.65557 | 1.20398 | 19081 ft | 362 kts | 176° |
| 2026-04-26 14:07 | 45.63049 | 1.20664 | 18652 ft | 360 kts | 175° |
| 2026-04-26 14:08 | 45.60560 | 1.20931 | 18210 ft | 358 kts | 176° |
| 2026-04-26 14:08 | 45.58087 | 1.21195 | 17779 ft | 354 kts | 176° |
| 2026-04-26 14:08 | 45.55642 | 1.21457 | 17366 ft | 351 kts | 176° |
| 2026-04-26 14:08 | 45.53222 | 1.21712 | 16958 ft | 347 kts | 176° |
| 2026-04-26 14:09 | 45.50825 | 1.21963 | 16553 ft | 344 kts | 176° |
| 2026-04-26 14:09 | 45.48451 | 1.22212 | 16148 ft | 341 kts | 176° |
| 2026-04-26 14:09 | 45.46096 | 1.22455 | 15759 ft | 338 kts | 176° |
| 2026-04-26 14:09 | 45.43757 | 1.22699 | 15364 ft | 335 kts | 176° |
| 2026-04-26 14:10 | 45.41449 | 1.22943 | 14972 ft | 333 kts | 176° |
| 2026-04-26 14:10 | 45.39172 | 1.23184 | 14595 ft | 330 kts | 176° |
| 2026-04-26 14:10 | 45.36893 | 1.23426 | 14203 ft | 328 kts | 176° |
| 2026-04-26 14:10 | 45.34625 | 1.23470 | 13795 ft | 325 kts | 186° |
| 2026-04-26 14:11 | 45.30450 | 1.21428 | 13075 ft | 316 kts | 212° |
| 2026-04-26 14:11 | 45.28578 | 1.19830 | 12717 ft | 313 kts | 211° |
| 2026-04-26 14:11 | 45.26716 | 1.18267 | 12366 ft | 310 kts | 211° |
| 2026-04-26 14:12 | 45.24861 | 1.16722 | 12011 ft | 307 kts | 211° |
| 2026-04-26 14:12 | 45.23024 | 1.15196 | 11657 ft | 305 kts | 210° |
| 2026-04-26 14:12 | 45.21197 | 1.13677 | 11313 ft | 303 kts | 210° |
| 2026-04-26 14:12 | 45.19383 | 1.12169 | 10965 ft | 302 kts | 210° |
| 2026-04-26 14:13 | 45.15800 | 1.09177 | 10388 ft | 294 kts | 210° |
| 2026-04-26 14:13 | 45.14046 | 1.07715 | 9945 ft | 289 kts | 210° |
| 2026-04-26 14:13 | 45.12336 | 1.06293 | 9575 ft | 281 kts | 210° |
| 2026-04-26 14:14 | 45.10659 | 1.04901 | 9251 ft | 279 kts | 210° |
| 2026-04-26 14:14 | 45.08987 | 1.03516 | 8927 ft | 278 kts | 210° |
| 2026-04-26 14:14 | 45.07316 | 1.02133 | 8600 ft | 278 kts | 210° |
| 2026-04-26 14:14 | 45.05651 | 1.00751 | 8287 ft | 277 kts | 211° |
| 2026-04-26 14:15 | 45.03996 | 0.99378 | 7961 ft | 277 kts | 211° |
| 2026-04-26 14:15 | 45.02334 | 0.97998 | 7631 ft | 277 kts | 211° |
| 2026-04-26 14:15 | 45.00673 | 0.96623 | 7306 ft | 276 kts | 211° |
| 2026-04-26 14:15 | 44.99026 | 0.95276 | 6861 ft | 281 kts | 210° |
| 2026-04-26 14:16 | 44.97291 | 0.93921 | 6118 ft | 288 kts | 208° |
| 2026-04-26 14:16 | 44.95541 | 0.92591 | 5624 ft | 284 kts | 208° |
| 2026-04-26 14:16 | 44.93805 | 0.91283 | 5112 ft | 282 kts | 208° |
| 2026-04-26 14:16 | 44.92078 | 0.89979 | 4576 ft | 280 kts | 208° |
| 2026-04-26 14:17 | 44.90912 | 0.89096 | 4086 ft | 283 kts | 208° |
| 2026-04-26 14:17 | 44.89158 | 0.87764 | 3356 ft | 290 kts | 210° |
| 2026-04-26 14:17 | 44.86852 | 0.86006 | 2914 ft | 275 kts | 209° |
| 2026-04-26 14:17 | 44.85229 | 0.84769 | 2783 ft | 257 kts | 209° |
| 2026-04-26 14:18 | 44.84186 | 0.83975 | 2724 ft | 247 kts | 210° |
| 2026-04-26 14:18 | 44.82776 | 0.82751 | 2598 ft | 230 kts | 221° |
| 2026-04-26 14:18 | 44.81768 | 0.81124 | 2489 ft | 214 kts | 241° |
| 2026-04-26 14:18 | 44.81215 | 0.79310 | 2482 ft | 190 kts | 257° |
| 2026-04-26 14:19 | 44.81050 | 0.77545 | 2476 ft | 176 kts | 271° |
| 2026-04-26 14:19 | 44.81128 | 0.75893 | 2474 ft | 163 kts | 276° |
| 2026-04-26 14:19 | 44.81214 | 0.74342 | 2469 ft | 154 kts | 276° |
| 2026-04-26 14:19 | 44.81296 | 0.72860 | 2465 ft | 149 kts | 277° |
| 2026-04-26 14:20 | 44.81375 | 0.71438 | 2481 ft | 140 kts | 275° |
| 2026-04-26 14:20 | 44.81452 | 0.70075 | 2443 ft | 138 kts | 276° |
| 2026-04-26 14:20 | 44.81527 | 0.68735 | 2317 ft | 137 kts | 276° |
| 2026-04-26 14:20 | 44.81602 | 0.67394 | 2161 ft | 137 kts | 276° |
| 2026-04-26 14:21 | 44.81675 | 0.66066 | 1986 ft | 135 kts | 276° |
| 2026-04-26 14:21 | 44.81748 | 0.64748 | 1818 ft | 134 kts | 277° |
| 2026-04-26 14:21 | 44.81820 | 0.63437 | 1633 ft | 135 kts | 277° |
| 2026-04-26 14:21 | 44.81891 | 0.62123 | 1449 ft | 136 kts | 278° |
| 2026-04-26 14:22 | 44.81958 | 0.60814 | 1274 ft | 134 kts | 276° |
| 2026-04-26 14:22 | 44.82034 | 0.59510 | 1091 ft | 134 kts | 277° |
| 2026-04-26 14:22 | 44.82107 | 0.58225 | 927 ft | 133 kts | 276° |
| 2026-04-26 14:22 | 44.82180 | 0.56938 | 718 ft | 131 kts | 274° |
| 2026-04-26 14:23 | 44.82244 | 0.55659 | 576 ft | 131 kts | 274° |
| 2026-04-26 14:23 | 44.82317 | 0.54391 | 419 ft | 130 kts | 274° |
| 2026-04-26 14:23 | 44.82386 | 0.53119 | 223 ft | 130 kts | 273° |
| 2026-04-26 14:23 | 44.82446 | 0.51958 | 179 ft | 97 kts | 274° |
| 2026-04-26 14:24 | 44.82480 | 0.51380 | 178 ft | 38 kts | 274° |
| 2026-04-26 14:24 | 44.82498 | 0.51060 | 177 ft | 28 kts | 274° |
| 2026-04-26 14:24 | 44.82509 | 0.50806 | 178 ft | 21 kts | 273° |
| 2026-04-26 14:24 | 44.82488 | 0.50673 | 177 ft | 13 kts | 201° |
| 2026-04-26 14:25 | 44.82393 | 0.50658 | 177 ft | 14 kts | 181° |
| 2026-04-26 14:25 | 44.82351 | 0.50745 | 177 ft | 12 kts | 95° |
| 2026-04-26 14:25 | 44.82345 | 0.50843 | 177 ft | 11 kts | 95° |
| 2026-04-26 14:25 | 44.82339 | 0.50962 | 177 ft | 13 kts | 94° |
| 2026-04-26 14:26 | 44.82333 | 0.51081 | 177 ft | 9 kts | 94° |
| 2026-04-26 14:26 | 44.82327 | 0.51176 | 177 ft | 10 kts | 95° |
| 2026-04-26 14:26 | 44.82321 | 0.51282 | 177 ft | 12 kts | 94° |
| 2026-04-26 14:26 | 44.82315 | 0.51409 | 177 ft | 14 kts | 94° |
| 2026-04-26 14:27 | 44.82306 | 0.51564 | 177 ft | 17 kts | 94° |
| 2026-04-26 14:27 | 44.82299 | 0.51706 | 177 ft | 14 kts | 96° |
| 2026-04-26 14:27 | 44.82241 | 0.51701 | 177 ft | 10 kts | 261° |
| 2026-04-26 14:27 | 44.82251 | 0.51600 | 177 ft | 9 kts | 288° |
| 2026-04-26 14:28 | 44.82272 | 0.51558 | 177 ft | 3 kts | 309° |
| 2026-04-26 14:28 | 44.82276 | 0.51551 | 177 ft | 0 kts | 309° |